createdAt,value
2023-12-23T00:01:05.261Z,100.00
2023-12-23T00:03:32.003Z,100.00
2023-12-23T00:06:01.047Z,100.00
2023-12-23T00:08:30.343Z,100.00
2023-12-23T00:10:58.748Z,100.00
2023-12-23T00:13:28.832Z,98.20
2023-12-23T00:15:55.557Z,100.00
2023-12-23T00:18:22.417Z,100.00
2023-12-23T00:20:49.212Z,100.00
2023-12-23T00:23:16.512Z,100.00
2023-12-23T00:25:43.998Z,99.82
2023-12-23T00:28:11.302Z,100.00
2023-12-23T00:30:39.964Z,99.50
2023-12-23T00:33:08.051Z,98.77
2023-12-23T00:35:38.073Z,99.73
2023-12-23T00:38:05.213Z,98.87
2023-12-23T00:40:32.806Z,97.89
2023-12-23T00:42:59.996Z,99.46
2023-12-23T00:45:26.767Z,99.08
2023-12-23T00:47:56.042Z,100.00
2023-12-23T00:50:23.349Z,100.00
2023-12-23T00:52:51.119Z,99.36
2023-12-23T00:55:17.788Z,98.47
2023-12-23T00:57:44.983Z,98.76
2023-12-23T01:00:12.760Z,98.25
2023-12-23T01:02:40.302Z,100.00
2023-12-23T01:05:09.799Z,98.79
2023-12-23T01:07:36.891Z,97.89
2023-12-23T01:10:03.810Z,98.37
2023-12-23T01:12:31.949Z,99.60
2023-12-23T01:14:59.359Z,99.21
2023-12-23T01:17:26.074Z,99.28
2023-12-23T01:19:54.377Z,99.72
2023-12-23T01:22:23.635Z,99.23
2023-12-23T01:24:50.801Z,97.48
2023-12-23T01:27:17.638Z,97.84
2023-12-23T01:29:45.617Z,98.15
2023-12-23T01:32:13.523Z,98.33
2023-12-23T01:34:40.821Z,96.57
2023-12-23T01:37:09.603Z,96.76
2023-12-23T01:39:38.473Z,95.32
2023-12-23T01:42:06.329Z,96.66
2023-12-23T01:44:33.197Z,98.53
2023-12-23T01:47:02.485Z,96.62
2023-12-23T01:49:31.691Z,97.52
2023-12-23T01:52:00.807Z,96.18
2023-12-23T01:54:30.138Z,96.91
2023-12-23T01:57:00.447Z,94.03
2023-12-23T01:59:27.249Z,93.40
2023-12-23T02:01:58.746Z,97.31
2023-12-23T02:04:26.460Z,95.58
2023-12-23T02:06:53.639Z,96.35
2023-12-23T02:09:21.259Z,95.22
2023-12-23T02:11:58.788Z,94.64
2023-12-23T02:14:37.186Z,95.54
2023-12-23T02:17:04.163Z,96.72
2023-12-23T02:19:31.350Z,94.75
2023-12-23T02:22:00.361Z,95.00
2023-12-23T02:24:27.768Z,93.97
2023-12-23T02:27:01.532Z,93.22
2023-12-23T02:29:32.114Z,94.46
2023-12-23T02:32:01.642Z,96.02
2023-12-23T02:34:29.255Z,94.43
2023-12-23T02:36:56.432Z,97.49
2023-12-23T02:39:26.289Z,97.25
2023-12-23T02:41:53.230Z,95.53
2023-12-23T02:44:20.513Z,96.74
2023-12-23T02:46:47.934Z,99.65
2023-12-23T02:49:15.916Z,99.72
2023-12-23T02:51:43.117Z,100.00
2023-12-23T02:54:10.504Z,100.00
2023-12-23T02:56:41.411Z,100.00
2023-12-23T02:59:08.132Z,100.00
2023-12-23T03:01:35.451Z,100.00
2023-12-23T03:04:04.037Z,100.00
2023-12-23T03:06:31.475Z,100.00
2023-12-23T03:08:58.781Z,100.00
2023-12-23T03:11:26.260Z,100.00
2023-12-23T03:13:55.144Z,100.00
2023-12-23T03:16:22.401Z,100.00
2023-12-23T03:18:50.148Z,100.00
2023-12-23T03:21:17.686Z,100.00
2023-12-23T03:23:45.435Z,100.00
2023-12-23T03:26:13.095Z,100.00
2023-12-23T03:28:39.848Z,100.00
2023-12-23T03:31:08.698Z,100.00
2023-12-23T03:33:37.623Z,100.00
2023-12-23T03:36:05.486Z,100.00
2023-12-23T03:38:32.760Z,100.00
2023-12-23T03:41:00.228Z,100.00
2023-12-23T03:43:27.521Z,100.00
2023-12-23T03:45:54.787Z,100.00
2023-12-23T03:48:24.145Z,100.00
2023-12-23T03:50:51.601Z,100.00
2023-12-23T03:53:19.268Z,100.00
2023-12-23T03:55:46.577Z,100.00
2023-12-23T03:58:13.851Z,100.00
2023-12-23T04:00:41.871Z,100.00
2023-12-23T04:03:09.101Z,100.00
2023-12-23T04:05:37.826Z,100.00
2023-12-23T04:08:06.107Z,100.00
2023-12-23T04:10:33.322Z,100.00
2023-12-23T04:13:00.740Z,100.00
2023-12-23T04:15:28.475Z,100.00
2023-12-23T04:17:56.100Z,100.00
2023-12-23T04:20:23.563Z,100.00
2023-12-23T04:22:53.267Z,100.00
2023-12-23T04:25:22.902Z,100.00
2023-12-23T04:27:51.906Z,100.00
2023-12-23T04:30:19.784Z,99.06
2023-12-23T04:32:47.495Z,99.33
2023-12-23T04:35:15.110Z,100.00
2023-12-23T04:37:43.088Z,98.88
2023-12-23T04:40:12.558Z,98.14
2023-12-23T04:42:39.791Z,98.23
2023-12-23T04:45:08.164Z,99.27
2023-12-23T04:47:35.460Z,98.89
2023-12-23T04:50:05.359Z,98.93
2023-12-23T04:52:32.570Z,96.88
2023-12-23T04:55:01.313Z,96.22
2023-12-23T04:57:30.188Z,97.16
2023-12-23T04:59:57.359Z,96.32
2023-12-23T05:02:24.562Z,95.59
2023-12-23T05:04:52.093Z,96.43
2023-12-23T05:07:19.358Z,98.09
2023-12-23T05:09:46.657Z,97.66
2023-12-23T05:12:14.476Z,96.03
2023-12-23T05:14:43.406Z,97.19
2023-12-23T05:17:10.790Z,94.71
2023-12-23T05:19:41.285Z,95.46
2023-12-23T05:22:08.725Z,94.39
2023-12-23T05:24:38.487Z,92.71
2023-12-23T05:27:06.883Z,92.05
2023-12-23T05:29:34.374Z,93.60
2023-12-23T05:32:03.702Z,91.89
2023-12-23T05:34:31.003Z,90.52
2023-12-23T05:36:58.452Z,89.05
2023-12-23T05:39:25.318Z,89.97
2023-12-23T05:41:52.617Z,92.19
2023-12-23T05:44:19.368Z,91.85
2023-12-23T05:46:49.394Z,90.84
2023-12-23T05:49:20.363Z,92.77
2023-12-23T05:51:49.025Z,94.76
2023-12-23T05:54:16.284Z,92.64
2023-12-23T05:56:43.545Z,95.55
2023-12-23T05:59:12.013Z,97.50
2023-12-23T06:01:39.262Z,98.33
2023-12-23T06:04:06.040Z,96.94
2023-12-23T06:06:37.581Z,98.62
2023-12-23T06:09:04.594Z,98.03
2023-12-23T06:11:32.368Z,98.71
2023-12-23T06:14:00.673Z,95.99
2023-12-23T06:16:28.107Z,95.65
2023-12-23T06:18:55.542Z,95.69
2023-12-23T06:21:22.984Z,96.82
2023-12-23T06:23:51.875Z,98.85
2023-12-23T06:26:19.286Z,100.00
2023-12-23T06:28:46.272Z,100.00
2023-12-23T06:31:13.738Z,100.00
2023-12-23T06:33:41.151Z,100.00
2023-12-23T06:36:09.805Z,100.00
2023-12-23T06:38:36.593Z,100.00
2023-12-23T06:41:05.823Z,100.00
2023-12-23T06:43:45.779Z,100.00
2023-12-23T06:46:18.761Z,100.00
2023-12-23T06:48:45.845Z,100.00
2023-12-23T06:51:13.197Z,100.00
2023-12-23T06:53:41.051Z,100.00
2023-12-23T06:56:12.698Z,100.00
2023-12-23T06:58:39.514Z,100.00
2023-12-23T07:01:07.310Z,100.00
2023-12-23T07:03:34.629Z,100.00
2023-12-23T07:06:02.170Z,100.00
2023-12-23T07:08:29.890Z,100.00
2023-12-23T07:10:57.228Z,100.00
2023-12-23T07:13:26.064Z,100.00
2023-12-23T07:15:53.851Z,100.00
2023-12-23T07:18:20.617Z,100.00
2023-12-23T07:20:48.251Z,100.00
2023-12-23T07:23:15.777Z,100.00
2023-12-23T07:25:43.307Z,100.00
2023-12-23T07:28:11.979Z,100.00
2023-12-23T07:30:41.585Z,100.00
2023-12-23T07:33:08.492Z,100.00
2023-12-23T07:35:35.798Z,100.00
2023-12-23T07:38:03.303Z,100.00
2023-12-23T07:40:32.409Z,100.00
2023-12-23T07:43:00.766Z,100.00
2023-12-23T07:45:28.060Z,100.00
2023-12-23T07:47:56.948Z,100.00
2023-12-23T07:50:24.109Z,100.00
2023-12-23T07:52:52.357Z,100.00
2023-12-23T07:55:19.856Z,100.00
2023-12-23T07:57:47.599Z,100.00
2023-12-23T08:00:15.581Z,100.00
2023-12-23T08:02:43.054Z,100.00
2023-12-23T08:05:14.194Z,100.00
2023-12-23T08:07:43.589Z,100.00
2023-12-23T08:10:11.623Z,100.00
2023-12-23T08:12:40.198Z,100.00
2023-12-23T08:15:09.851Z,100.00
2023-12-23T08:17:38.030Z,100.00
2023-12-23T08:20:06.790Z,100.00
2023-12-23T08:22:35.789Z,100.00
2023-12-23T08:25:03.153Z,100.00
2023-12-23T08:27:30.817Z,100.00
2023-12-23T08:29:58.308Z,100.00
2023-12-23T08:32:25.778Z,100.00
2023-12-23T08:34:53.853Z,100.00
2023-12-23T08:37:20.641Z,100.00
2023-12-23T08:39:49.428Z,100.00
2023-12-23T08:42:16.922Z,100.00
2023-12-23T08:44:44.267Z,100.00
2023-12-23T08:47:11.418Z,100.00
2023-12-23T08:49:44.050Z,100.00
2023-12-23T08:52:11.231Z,100.00
2023-12-23T08:54:41.820Z,100.00
2023-12-23T08:57:11.790Z,100.00
2023-12-23T08:59:39.031Z,100.00
2023-12-23T09:02:07.657Z,100.00
2023-12-23T09:04:35.149Z,100.00
2023-12-23T09:07:02.215Z,100.00
2023-12-23T09:09:28.950Z,100.00
2023-12-23T09:11:56.417Z,100.00
2023-12-23T09:14:25.097Z,100.00
2023-12-23T09:16:52.419Z,99.87
2023-12-23T09:19:19.587Z,100.00
2023-12-23T09:21:47.670Z,100.00
2023-12-23T09:24:16.015Z,100.00
2023-12-23T09:26:43.367Z,100.00
2023-12-23T09:29:11.082Z,100.00
2023-12-23T09:31:39.849Z,100.00
2023-12-23T09:34:08.138Z,100.00
2023-12-23T09:36:35.954Z,98.84
2023-12-23T09:39:04.172Z,97.36
2023-12-23T09:41:32.092Z,97.38
2023-12-23T09:43:59.011Z,96.57
2023-12-23T09:46:26.723Z,96.46
2023-12-23T09:48:55.993Z,96.84
2023-12-23T09:51:26.899Z,98.20
2023-12-23T09:53:59.297Z,97.07
2023-12-23T09:56:29.286Z,98.45
2023-12-23T09:58:56.835Z,96.76
2023-12-23T10:01:24.433Z,96.31
2023-12-23T10:03:52.884Z,97.70
2023-12-23T10:06:22.702Z,99.21
2023-12-23T10:08:50.520Z,99.40
2023-12-23T10:11:17.992Z,100.00
2023-12-23T10:13:45.417Z,100.00
2023-12-23T10:16:14.910Z,100.00
2023-12-23T10:18:41.728Z,100.00
2023-12-23T10:21:10.827Z,100.00
2023-12-23T10:23:39.336Z,100.00
2023-12-23T10:26:06.845Z,100.00
2023-12-23T10:28:36.436Z,100.00
2023-12-23T10:31:08.137Z,100.00
2023-12-23T10:33:39.748Z,100.00
2023-12-23T10:36:09.360Z,100.00
2023-12-23T10:38:39.983Z,100.00
2023-12-23T10:41:19.244Z,100.00
2023-12-23T10:43:48.009Z,100.00
2023-12-23T10:46:16.154Z,100.00
2023-12-23T10:48:43.701Z,100.00
2023-12-23T10:51:12.760Z,100.00
2023-12-23T10:53:40.727Z,100.00
2023-12-23T10:56:12.996Z,100.00
2023-12-23T10:58:41.546Z,100.00
2023-12-23T11:01:12.648Z,100.00
2023-12-23T11:03:40.890Z,100.00
2023-12-23T11:06:10.369Z,100.00
2023-12-23T11:08:38.638Z,100.00
2023-12-23T11:11:05.923Z,100.00
2023-12-23T11:13:34.767Z,100.00
2023-12-23T11:16:02.369Z,100.00
2023-12-23T11:18:30.168Z,100.00
2023-12-23T11:20:57.813Z,100.00
2023-12-23T11:23:35.396Z,100.00
2023-12-23T11:26:04.040Z,100.00
2023-12-23T11:28:33.016Z,100.00
2023-12-23T11:31:01.885Z,100.00
2023-12-23T11:33:31.739Z,100.00
2023-12-23T11:36:01.636Z,100.00
2023-12-23T11:38:31.116Z,100.00
2023-12-23T11:41:00.173Z,100.00
2023-12-23T11:43:27.866Z,100.00
2023-12-23T11:45:55.592Z,100.00
2023-12-23T11:48:25.889Z,100.00
2023-12-23T11:50:57.633Z,100.00
2023-12-23T11:53:24.561Z,100.00
2023-12-23T11:55:52.243Z,100.00
2023-12-23T11:58:21.085Z,100.00
2023-12-23T12:00:53.152Z,100.00
2023-12-23T12:03:19.986Z,100.00
2023-12-23T12:05:48.786Z,100.00
2023-12-23T12:08:16.142Z,100.00
2023-12-23T12:10:44.218Z,100.00
2023-12-23T12:13:12.117Z,100.00
2023-12-23T12:15:41.607Z,100.00
2023-12-23T12:18:08.899Z,100.00
2023-12-23T12:20:36.133Z,100.00
2023-12-23T12:23:05.295Z,100.00
2023-12-23T12:25:32.920Z,100.00
2023-12-23T12:28:00.496Z,100.00
2023-12-23T12:30:27.741Z,100.00
2023-12-23T12:32:54.969Z,100.00
2023-12-23T12:35:22.444Z,100.00
2023-12-23T12:37:50.521Z,100.00
2023-12-23T12:40:20.129Z,100.00
2023-12-23T12:42:49.248Z,100.00
2023-12-23T12:45:16.627Z,100.00
2023-12-23T12:47:43.603Z,99.46
2023-12-23T12:50:10.625Z,100.00
2023-12-23T12:52:38.575Z,99.78
2023-12-23T12:55:07.324Z,99.31
2023-12-23T12:57:36.089Z,99.83
2023-12-23T13:00:04.885Z,98.68
2023-12-23T13:02:32.713Z,100.00
2023-12-23T13:04:59.934Z,100.00
2023-12-23T13:07:26.753Z,98.97
2023-12-23T13:09:54.202Z,98.38
2023-12-23T13:12:20.950Z,97.23
2023-12-23T13:14:50.090Z,97.58
2023-12-23T13:17:16.867Z,97.46
2023-12-23T13:19:44.748Z,97.60
2023-12-23T13:22:12.877Z,96.42
2023-12-23T13:24:40.109Z,97.89
2023-12-23T13:27:08.752Z,97.93
2023-12-23T13:29:36.203Z,96.61
2023-12-23T13:32:05.769Z,95.94
2023-12-23T13:34:34.846Z,96.25
2023-12-23T13:37:03.491Z,96.42
2023-12-23T13:39:30.901Z,97.07
2023-12-23T13:41:58.346Z,97.43
2023-12-23T13:44:25.765Z,97.32
2023-12-23T13:46:53.306Z,97.29
2023-12-23T13:49:21.634Z,99.23
2023-12-23T13:51:49.192Z,96.23
2023-12-23T13:54:16.486Z,96.92
2023-12-23T13:56:43.409Z,95.07
2023-12-23T13:59:11.167Z,92.86
2023-12-23T14:01:38.644Z,91.24
2023-12-23T14:04:05.930Z,88.22
2023-12-23T14:06:35.307Z,87.67
2023-12-23T14:09:02.121Z,90.83
2023-12-23T14:11:29.421Z,88.27
2023-12-23T14:13:58.284Z,88.00
2023-12-23T14:16:25.628Z,88.78
2023-12-23T14:18:54.957Z,90.50
2023-12-23T14:21:22.275Z,89.97
2023-12-23T14:23:50.869Z,90.10
2023-12-23T14:26:19.037Z,90.37
2023-12-23T14:28:45.954Z,89.26
2023-12-23T14:31:14.596Z,88.80
2023-12-23T14:33:43.548Z,87.98
2023-12-23T14:36:11.566Z,88.89
2023-12-23T14:38:40.684Z,89.28
2023-12-23T14:41:09.678Z,89.49
2023-12-23T14:43:36.965Z,89.14
2023-12-23T14:46:04.564Z,88.97
2023-12-23T14:48:31.988Z,91.44
2023-12-23T14:50:59.364Z,88.77
2023-12-23T14:53:27.876Z,89.76
2023-12-23T14:55:55.310Z,90.10
2023-12-23T14:58:24.379Z,91.02
2023-12-23T15:00:51.057Z,91.45
2023-12-23T15:03:18.251Z,92.27
2023-12-23T15:05:45.618Z,91.26
2023-12-23T15:08:13.204Z,89.88
2023-12-23T15:10:40.573Z,88.54
2023-12-23T15:13:08.837Z,87.34
2023-12-23T15:15:37.552Z,86.73
2023-12-23T15:18:04.755Z,86.04
2023-12-23T15:20:32.022Z,88.00
2023-12-23T15:23:01.647Z,87.09
2023-12-23T15:25:28.835Z,87.70
2023-12-23T15:27:56.504Z,87.71
2023-12-23T15:30:23.726Z,87.76
2023-12-23T15:32:52.744Z,89.85
2023-12-23T15:35:20.657Z,89.45
2023-12-23T15:37:47.920Z,89.54
2023-12-23T15:40:15.515Z,89.09
2023-12-23T15:42:43.482Z,89.92
2023-12-23T15:45:11.087Z,91.82
2023-12-23T15:47:38.644Z,91.99
2023-12-23T15:50:08.286Z,91.71
2023-12-23T15:52:35.682Z,92.25
2023-12-23T15:55:03.143Z,92.64
2023-12-23T15:57:29.852Z,94.25
2023-12-23T15:59:57.209Z,93.89
2023-12-23T16:02:25.071Z,94.32
2023-12-23T16:04:52.624Z,92.48
2023-12-23T16:07:21.844Z,92.03
2023-12-23T16:09:49.760Z,92.57
2023-12-23T16:12:16.519Z,89.83
2023-12-23T16:14:44.198Z,87.88
2023-12-23T16:17:11.945Z,87.40
2023-12-23T16:19:39.375Z,87.08
2023-12-23T16:22:06.859Z,87.28
2023-12-23T16:24:35.089Z,87.92
2023-12-23T16:27:02.346Z,88.27
2023-12-23T16:29:29.637Z,89.58
2023-12-23T16:31:57.861Z,89.58
2023-12-23T16:34:25.474Z,90.58
2023-12-23T16:36:52.742Z,92.45
2023-12-23T16:39:20.696Z,92.97
2023-12-23T16:41:49.451Z,91.79
2023-12-23T16:44:16.800Z,90.50
2023-12-23T16:46:45.066Z,90.38
2023-12-23T16:49:12.492Z,90.08
2023-12-23T16:51:39.782Z,90.16
2023-12-23T16:54:08.024Z,89.59
2023-12-23T16:56:34.838Z,89.92
2023-12-23T16:59:04.067Z,90.57
2023-12-23T17:01:31.373Z,91.04
2023-12-23T17:03:58.398Z,91.49
2023-12-23T17:06:25.904Z,91.39
2023-12-23T17:08:53.203Z,91.57
2023-12-23T17:11:20.456Z,92.08
2023-12-23T17:13:48.379Z,92.51
2023-12-23T17:16:17.099Z,92.32
2023-12-23T17:18:43.894Z,94.43
2023-12-23T17:21:13.424Z,94.46
2023-12-23T17:23:40.676Z,94.00
2023-12-23T17:26:08.219Z,94.93
2023-12-23T17:28:35.665Z,94.35
2023-12-23T17:31:03.204Z,94.35
2023-12-23T17:33:31.515Z,93.39
2023-12-23T17:35:59.045Z,92.44
2023-12-23T17:38:26.393Z,94.57
2023-12-23T17:40:53.733Z,95.74
2023-12-23T17:43:21.390Z,96.79
2023-12-23T17:45:49.227Z,96.47
2023-12-23T17:48:15.888Z,96.85
2023-12-23T17:50:44.666Z,95.38
2023-12-23T17:53:11.701Z,96.55
2023-12-23T17:55:39.066Z,94.29
2023-12-23T17:58:06.222Z,95.57
2023-12-23T18:00:33.800Z,94.65
2023-12-23T18:03:00.953Z,96.47
2023-12-23T18:05:28.459Z,95.42
2023-12-23T18:07:57.780Z,95.44
2023-12-23T18:10:25.110Z,95.99
2023-12-23T18:12:54.555Z,98.09
2023-12-23T18:15:22.637Z,96.19
2023-12-23T18:17:50.295Z,98.44
2023-12-23T18:20:17.704Z,100.00
2023-12-23T18:22:45.210Z,98.33
2023-12-23T18:25:14.076Z,97.57
2023-12-23T18:27:41.485Z,98.16
2023-12-23T18:30:11.684Z,98.40
2023-12-23T18:32:39.252Z,100.00
2023-12-23T18:35:07.552Z,99.26
2023-12-23T18:37:34.824Z,98.50
2023-12-23T18:40:02.309Z,98.16
2023-12-23T18:42:31.237Z,98.93
2023-12-23T18:44:59.615Z,100.00
2023-12-23T18:47:27.291Z,98.41
2023-12-23T18:49:57.155Z,99.66
2023-12-23T18:52:24.786Z,99.59
2023-12-23T18:54:52.499Z,99.54
2023-12-23T18:57:19.304Z,99.49
2023-12-23T18:59:48.076Z,100.00
2023-12-23T19:02:15.927Z,99.96
2023-12-23T19:04:45.681Z,100.00
2023-12-23T19:07:13.738Z,100.00
2023-12-23T19:09:41.309Z,100.00
2023-12-23T19:12:08.555Z,99.53
2023-12-23T19:14:35.914Z,97.97
2023-12-23T19:17:04.907Z,100.00
2023-12-23T19:19:31.667Z,100.00
2023-12-23T19:21:59.222Z,100.00
2023-12-23T19:24:26.683Z,100.00
2023-12-23T19:26:54.346Z,100.00
2023-12-23T19:29:21.099Z,99.60
2023-12-23T19:31:48.712Z,100.00
2023-12-23T19:34:17.802Z,100.00
2023-12-23T19:36:46.206Z,100.00
2023-12-23T19:39:14.312Z,100.00
2023-12-23T19:41:42.161Z,100.00
2023-12-23T19:44:09.686Z,100.00
2023-12-23T19:46:37.493Z,100.00
2023-12-23T19:49:04.978Z,100.00
2023-12-23T19:51:36.719Z,100.00
2023-12-23T19:54:04.061Z,100.00
2023-12-23T19:56:30.936Z,100.00
2023-12-23T19:58:57.654Z,100.00
2023-12-23T20:01:24.939Z,100.00
2023-12-23T20:03:52.398Z,100.00
2023-12-23T20:06:20.397Z,100.00
2023-12-23T20:08:49.772Z,100.00
2023-12-23T20:11:24.009Z,100.00
2023-12-23T20:13:51.181Z,100.00
2023-12-23T20:16:23.614Z,100.00
2023-12-23T20:18:51.952Z,100.00
2023-12-23T20:21:22.267Z,100.00
2023-12-23T20:23:51.300Z,100.00
2023-12-23T20:26:18.088Z,100.00
2023-12-23T20:28:45.148Z,100.00
2023-12-23T20:31:12.536Z,100.00
2023-12-23T20:33:39.967Z,100.00
2023-12-23T20:36:07.563Z,100.00
2023-12-23T20:38:35.386Z,100.00
2023-12-23T20:41:04.514Z,100.00
2023-12-23T20:43:31.795Z,100.00
2023-12-23T20:45:58.515Z,100.00
2023-12-23T20:48:25.896Z,100.00
2023-12-23T20:50:55.756Z,100.00
2023-12-23T20:53:25.128Z,100.00
2023-12-23T20:55:52.566Z,100.00
2023-12-23T20:58:20.629Z,100.00
2023-12-23T21:00:48.184Z,100.00
2023-12-23T21:03:15.547Z,100.00
2023-12-23T21:05:43.867Z,100.00
2023-12-23T21:08:11.724Z,100.00
2023-12-23T21:10:39.114Z,100.00
2023-12-23T21:13:06.388Z,100.00
2023-12-23T21:15:35.489Z,100.00
2023-12-23T21:18:04.597Z,100.00
2023-12-23T21:20:31.838Z,100.00
2023-12-23T21:22:59.658Z,100.00
2023-12-23T21:25:26.861Z,100.00
2023-12-23T21:27:54.265Z,100.00
2023-12-23T21:30:21.788Z,100.00
2023-12-23T21:32:50.766Z,100.00
2023-12-23T21:35:18.369Z,100.00
2023-12-23T21:37:45.759Z,100.00
2023-12-23T21:40:13.697Z,100.00
2023-12-23T21:42:40.974Z,100.00
2023-12-23T21:45:09.410Z,100.00
2023-12-23T21:47:36.220Z,100.00
2023-12-23T21:50:05.944Z,100.00
2023-12-23T21:52:33.466Z,100.00
2023-12-23T21:55:00.202Z,100.00
2023-12-23T21:57:26.949Z,100.00
2023-12-23T21:59:54.545Z,100.00
2023-12-23T22:02:21.776Z,100.00
2023-12-23T22:04:49.200Z,100.00
2023-12-23T22:07:18.761Z,100.00
2023-12-23T22:09:46.151Z,100.00
2023-12-23T22:12:13.786Z,100.00
2023-12-23T22:14:41.509Z,100.00
2023-12-23T22:17:08.981Z,100.00
2023-12-23T22:19:37.050Z,100.00
2023-12-23T22:22:04.730Z,100.00
2023-12-23T22:24:33.521Z,100.00
2023-12-23T22:27:00.256Z,100.00
2023-12-23T22:29:27.012Z,100.00
2023-12-23T22:31:53.852Z,100.00
2023-12-23T22:34:21.205Z,100.00
2023-12-23T22:36:48.863Z,100.00
2023-12-23T22:39:16.115Z,100.00
2023-12-23T22:41:45.731Z,100.00
2023-12-23T22:44:13.225Z,100.00
2023-12-23T22:46:40.772Z,100.00
2023-12-23T22:49:08.227Z,100.00
2023-12-23T22:51:35.893Z,100.00
2023-12-23T22:54:03.259Z,100.00
2023-12-23T22:56:31.157Z,100.00
2023-12-23T22:59:00.252Z,100.00
2023-12-23T23:01:27.574Z,100.00
2023-12-23T23:03:54.783Z,100.00
2023-12-23T23:06:23.675Z,100.00
2023-12-23T23:08:51.196Z,100.00
2023-12-23T23:11:18.305Z,100.00
2023-12-23T23:13:45.149Z,100.00
2023-12-23T23:16:14.149Z,100.00
2023-12-23T23:18:42.444Z,100.00
2023-12-23T23:21:10.019Z,100.00
2023-12-23T23:23:36.737Z,100.00
2023-12-23T23:26:04.257Z,100.00
2023-12-23T23:28:32.403Z,100.00
2023-12-23T23:30:59.672Z,100.00
2023-12-23T23:33:28.748Z,100.00
2023-12-23T23:35:56.463Z,100.00
2023-12-23T23:38:24.325Z,100.00
2023-12-23T23:40:51.580Z,100.00
2023-12-23T23:43:19.254Z,100.00
2023-12-23T23:45:46.508Z,100.00
2023-12-23T23:48:14.272Z,100.00
2023-12-23T23:50:46.250Z,100.00
2023-12-23T23:53:13.669Z,100.00
2023-12-23T23:55:41.186Z,100.00
2023-12-23T23:58:08.768Z,100.00
